createdAt,value
2018-06-25T00:17:26.365Z,15.64
2018-06-25T00:20:02.018Z,15.70
2018-06-25T00:25:50.610Z,15.76
2018-06-25T00:28:33.468Z,15.78
2018-06-25T00:31:07.923Z,15.78
2018-06-25T00:33:49.125Z,15.78
2018-06-25T00:36:30.787Z,15.81
2018-06-25T00:39:26.173Z,15.81
2018-06-25T00:42:06.458Z,15.80
2018-06-25T00:44:40.167Z,15.81
2018-06-25T00:47:27.934Z,15.83
2018-06-25T00:50:03.280Z,15.85
2018-06-25T00:55:34.129Z,15.94
2018-06-25T00:58:07.890Z,15.98
2018-06-25T01:00:44.272Z,15.94
2018-06-25T01:03:19.945Z,15.94
2018-06-25T01:05:56.074Z,15.95
2018-06-25T01:08:38.209Z,15.97
2018-06-25T01:11:15.881Z,15.98
2018-06-25T01:13:47.099Z,15.97
2018-06-25T01:16:35.471Z,15.99
2018-06-25T01:19:21.995Z,16.00
2018-06-25T01:24:53.005Z,15.95
2018-06-25T01:27:34.451Z,15.98
2018-06-25T01:30:18.595Z,15.98
2018-06-25T01:32:52.996Z,15.99
2018-06-25T01:35:28.976Z,15.99
2018-06-25T01:38:16.220Z,15.99
2018-06-25T01:40:55.790Z,15.93
2018-06-25T01:43:25.829Z,15.91
2018-06-25T01:48:58.995Z,15.78
2018-06-25T01:51:32.818Z,15.72
2018-06-25T01:54:06.252Z,15.69
2018-06-25T01:56:37.352Z,15.68
2018-06-25T01:59:19.274Z,15.64
2018-06-25T02:02:01.147Z,15.59
2018-06-25T02:04:38.066Z,15.52
2018-06-25T02:07:08.252Z,15.49
2018-06-25T02:09:40.389Z,15.45
2018-06-25T02:12:11.451Z,15.39
2018-06-25T02:14:50.870Z,15.29
2018-06-25T02:17:43.137Z,15.27
2018-06-25T02:20:36.903Z,15.23
2018-06-25T02:23:14.287Z,15.22
2018-06-25T02:25:44.474Z,15.20
2018-06-25T02:31:14.323Z,15.20
2018-06-25T02:34:04.131Z,15.14
2018-06-25T02:36:40.123Z,15.09
2018-06-25T02:39:22.142Z,15.09
2018-06-25T02:41:58.067Z,15.09
2018-06-25T02:44:34.590Z,15.09
2018-06-25T02:47:09.459Z,15.07
2018-06-25T02:49:40.521Z,15.05
2018-06-25T02:52:14.110Z,15.10
2018-06-25T02:57:52.787Z,15.10
2018-06-25T03:00:22.846Z,15.09
2018-06-25T03:02:52.879Z,15.07
2018-06-25T03:05:22.934Z,15.03
2018-06-25T03:08:04.551Z,14.99
2018-06-25T03:10:42.002Z,14.97
2018-06-25T03:13:22.091Z,14.96
2018-06-25T03:15:58.957Z,14.96
2018-06-25T03:18:30.056Z,14.99
2018-06-25T03:21:06.951Z,15.01
2018-06-25T03:23:55.169Z,15.05
2018-06-25T03:26:30.899Z,15.02
2018-06-25T03:29:04.383Z,15.07
2018-06-25T03:31:42.499Z,15.12
2018-06-25T03:34:13.683Z,15.14
2018-06-25T03:36:44.745Z,15.15
2018-06-25T03:39:18.035Z,15.17
2018-06-25T03:41:49.076Z,15.18
2018-06-25T03:44:19.219Z,15.20
2018-06-25T03:46:49.292Z,15.23
2018-06-25T03:49:21.412Z,15.27
2018-06-25T03:51:51.583Z,15.29
2018-06-25T03:54:21.723Z,15.28
2018-06-25T03:56:51.951Z,15.30
2018-06-25T03:59:22.039Z,15.32
2018-06-25T04:01:52.763Z,15.31
2018-06-25T04:04:23.148Z,15.35
2018-06-25T04:07:01.074Z,15.34
2018-06-25T04:09:30.728Z,15.38
2018-06-25T04:12:07.819Z,15.37
2018-06-25T04:14:44.871Z,15.36
2018-06-25T04:17:17.191Z,15.37
2018-06-25T04:19:55.302Z,15.47
2018-06-25T04:22:28.986Z,15.47
2018-06-25T04:25:01.028Z,15.51
2018-06-25T04:27:37.372Z,15.55
2018-06-25T04:30:08.464Z,15.57
2018-06-25T04:32:38.663Z,15.59
2018-06-25T04:35:14.194Z,15.64
2018-06-25T04:37:44.241Z,15.70
2018-06-25T04:40:18.803Z,15.71
2018-06-25T04:42:52.914Z,15.71
2018-06-25T04:45:24.124Z,15.73
2018-06-25T04:47:58.902Z,15.79
2018-06-25T04:50:30.563Z,15.86
2018-06-25T04:53:00.625Z,15.87
2018-06-25T04:55:31.210Z,15.76
2018-06-25T04:58:01.583Z,15.65
2018-06-25T05:00:31.702Z,15.81
2018-06-25T05:03:01.799Z,15.75
2018-06-25T05:05:31.947Z,15.81
2018-06-25T05:08:06.285Z,15.71
2018-06-25T05:10:36.457Z,15.77
2018-06-25T05:13:06.602Z,15.85
2018-06-25T05:15:39.389Z,15.88
2018-06-25T05:18:09.549Z,16.03
2018-06-25T05:20:44.091Z,16.37
2018-06-25T05:23:26.507Z,16.40
2018-06-25T05:25:58.704Z,16.67
2018-06-25T05:28:51.212Z,16.91
2018-06-25T05:31:23.396Z,16.79
2018-06-25T05:33:57.360Z,16.67
2018-06-25T05:36:35.511Z,16.69
2018-06-25T05:42:19.154Z,16.53
2018-06-25T05:44:57.471Z,16.43
2018-06-25T05:47:46.285Z,16.35
2018-06-25T05:50:26.647Z,16.13
2018-06-25T05:56:06.778Z,16.04
2018-06-25T05:58:43.133Z,16.43
2018-06-25T06:01:14.716Z,16.81
2018-06-25T06:03:52.614Z,16.38
2018-06-25T06:06:24.967Z,16.35
2018-06-25T06:09:08.055Z,16.37
2018-06-25T06:11:38.238Z,16.23
2018-06-25T06:14:10.433Z,15.90
2018-06-25T06:16:42.545Z,15.86
2018-06-25T06:19:14.872Z,15.84
2018-06-25T06:21:51.289Z,15.92
2018-06-25T06:24:32.459Z,15.94
2018-06-25T06:27:07.921Z,15.86
2018-06-25T06:29:38.579Z,15.88
2018-06-25T06:32:31.416Z,15.77
2018-06-25T06:35:12.738Z,15.64
2018-06-25T06:37:59.410Z,15.75
2018-06-25T06:40:35.260Z,15.60
2018-06-25T06:43:23.811Z,15.51
2018-06-25T06:46:16.527Z,15.67
2018-06-25T22:08:26.373Z,15.37
2018-06-25T22:10:57.921Z,15.29
2018-06-25T22:13:36.081Z,15.26
2018-06-25T22:16:28.728Z,15.14
2018-06-25T22:22:14.180Z,14.80
2018-06-25T22:24:51.161Z,14.59
2018-06-25T22:27:37.210Z,14.37
2018-06-25T22:30:11.429Z,14.16
2018-06-25T22:32:48.245Z,14.07
2018-06-25T22:35:24.746Z,14.13
2018-06-25T22:38:19.539Z,14.22
2018-06-25T22:41:00.164Z,14.25
2018-06-25T22:43:38.477Z,14.29
2018-06-25T22:46:13.272Z,14.31
2018-06-25T22:48:46.955Z,14.29
2018-06-25T22:51:19.604Z,14.17
2018-06-25T22:56:49.931Z,14.10
2018-06-25T22:59:20.224Z,14.05
2018-06-25T23:02:00.993Z,13.95
2018-06-25T23:04:42.880Z,13.93
2018-06-25T23:07:26.341Z,13.85
2018-06-25T23:09:58.937Z,13.81
2018-06-25T23:12:35.090Z,13.77
2018-06-25T23:15:15.631Z,13.73
2018-06-25T23:17:59.568Z,13.73
2018-06-25T23:20:37.334Z,13.67
2018-06-25T23:23:27.472Z,13.70
2018-06-25T23:26:02.485Z,13.72
2018-06-25T23:28:36.766Z,13.80
2018-06-25T23:31:08.960Z,13.82
2018-06-25T23:33:41.153Z,13.85
2018-06-25T23:36:21.492Z,13.82
2018-06-25T23:38:54.819Z,13.72
2018-06-25T23:41:25.518Z,13.56
2018-06-25T23:43:55.641Z,13.42
2018-06-25T23:46:25.716Z,13.29
2018-06-25T23:48:55.926Z,13.18
2018-06-25T23:51:26.017Z,13.09
2018-06-25T23:53:56.985Z,13.05
2018-06-25T23:56:28.637Z,13.05
2018-06-25T23:58:58.727Z,13.09
